Airfield :







YOU CAN JOIN US ON...

 
LOGIN :

Register | Disclaimer

   EN    FR    IT 

 









Legend :    VFR   Marginal VFR   IFR   Intensive IFR   Very Intensive IFR
Visi :
Ceiling :
>= 8 km
>= 3000ft
5 to 8 km
1000 to 3000 ft
1500m to 5 km
500 to 1000 ft
800 to 1500m
200 to 500 ft
< 800m
< 200 ft
Symbols :   Thunderstorms  Fog  Heavy snow  Heavy precipitations  Wind > 20 kt






- Airport Elevation : 40 ft
- IATA code : YRF


CYCA - Cartwright

CURRENT METAR :
  • 250300Z AUTO 22012G22KT 9SM CLR 20/07 A3011 RMK SLP197 DENSITY ALT 400FT

EXPIRED METARs :
  • 250200Z AUTO 20013G21KT 9SM SCT160 OVC180 20/07 A3010 RMK SLP194 DENSITY ALT 500FT
  • 250100Z AUTO 21008KT 9SM BKN120 OVC170 20/07 A3009 RMK SLP192 DENSITY ALT 500FT

TAF TAF CYCA
Valid from the 25 at 02:00 until the 25 at 14:00 UTC


250138Z 2502/2514 21008KT P6SM BKN120 OVC170
TEMPO 2502/2514 SCT120 RMK FCST BASED ON AUTO OBS. NXT FCST BY 250800Z
CZQX FIR / North America



MET'MAP, your aeronautical weather chart ! - Copyright ORBIFLY December 2007 - Disclaimer

ORBIFLY MET'MAP TEAM :

Programming & Development : Alexandra Zaïnal
Concept & original design : Baudouin d'Aumeries
Assistance for programming : Marc-Olivier Méhu
Technical & hardware support : Manuel Goepfert

Contact : metmap@orbifly.com




SOURCES & CREDITS :

   NOAA